createdAt,value
2019-02-07T00:00:58.824Z,21.27
2019-02-07T00:03:20.081Z,20.17
2019-02-07T00:05:41.551Z,21.10
2019-02-07T00:08:03.098Z,20.60
2019-02-07T00:10:24.461Z,18.40
2019-02-07T00:12:46.182Z,16.67
2019-02-07T00:15:09.326Z,18.77
2019-02-07T00:17:30.684Z,18.47
2019-02-07T00:19:52.122Z,18.40
2019-02-07T00:22:13.409Z,20.20
2019-02-07T00:24:42.565Z,19.60
2019-02-07T00:26:57.950Z,19.53
2019-02-07T00:29:19.201Z,19.63
2019-02-07T00:31:40.449Z,19.67
2019-02-07T00:34:02.841Z,20.17
2019-02-07T00:36:25.265Z,20.03
2019-02-07T00:38:46.485Z,18.93
2019-02-07T00:41:07.711Z,19.13
2019-02-07T00:43:29.030Z,20.07
2019-02-07T00:45:50.376Z,19.53
2019-02-07T00:48:11.675Z,18.90
2019-02-07T00:50:33.237Z,19.70
2019-02-07T00:52:54.574Z,18.80
2019-02-07T00:55:17.819Z,20.37
2019-02-07T00:57:39.172Z,18.97
2019-02-07T01:00:00.533Z,19.80
2019-02-07T01:02:21.947Z,18.97
2019-02-07T01:04:46.473Z,18.27
2019-02-07T01:07:07.915Z,19.23
2019-02-07T01:09:29.303Z,19.13
2019-02-07T01:11:51.038Z,17.77
2019-02-07T01:14:12.373Z,18.30
2019-02-07T01:16:33.739Z,16.83
2019-02-07T01:18:55.061Z,17.40
2019-02-07T01:21:16.451Z,18.27
2019-02-07T01:23:37.758Z,17.97
2019-02-07T01:25:59.042Z,16.40
2019-02-07T01:28:20.253Z,18.30
2019-02-07T01:30:41.496Z,17.13
2019-02-07T01:33:02.801Z,17.27
2019-02-07T01:35:25.239Z,18.43
2019-02-07T01:37:47.039Z,17.57
2019-02-07T01:40:11.651Z,17.67
2019-02-07T01:42:33.030Z,18.63
2019-02-07T01:44:55.345Z,18.67
2019-02-07T01:47:17.007Z,17.53
2019-02-07T01:49:39.539Z,17.30
2019-02-07T01:52:00.754Z,17.87
2019-02-07T01:54:21.964Z,18.43
2019-02-07T01:56:43.188Z,18.13
2019-02-07T01:59:07.533Z,17.30
2019-02-07T02:01:28.779Z,17.83
2019-02-07T02:03:50.078Z,18.47
2019-02-07T02:06:11.621Z,16.73
2019-02-07T02:08:32.987Z,17.67
2019-02-07T02:10:54.318Z,18.03
2019-02-07T02:13:15.642Z,17.30
2019-02-07T02:15:38.018Z,15.63
2019-02-07T02:17:59.730Z,15.90
2019-02-07T02:20:22.855Z,16.90
2019-02-07T02:22:44.245Z,16.57
2019-02-07T02:25:08.737Z,16.93
2019-02-07T02:27:30.084Z,17.63
2019-02-07T02:29:52.631Z,18.20
2019-02-07T02:32:13.961Z,17.40
2019-02-07T02:34:35.275Z,18.63
2019-02-07T02:36:56.959Z,18.97
2019-02-07T02:39:21.254Z,18.57
2019-02-07T02:41:42.860Z,19.13
2019-02-07T02:44:04.187Z,19.30
2019-02-07T02:46:25.494Z,19.80
2019-02-07T02:48:46.801Z,19.73
2019-02-07T02:51:10.609Z,20.20
2019-02-07T02:53:31.803Z,19.60
2019-02-07T02:55:53.628Z,20.17
2019-02-07T02:58:15.231Z,20.73
2019-02-07T03:00:44.062Z,20.53
2019-02-07T03:03:07.326Z,20.20
2019-02-07T03:05:45.446Z,19.73
2019-02-07T03:10:52.927Z,20.27
2019-02-07T03:13:16.399Z,19.30
2019-02-07T03:15:49.582Z,20.00
2019-02-07T03:18:10.730Z,21.30
2019-02-07T03:20:39.630Z,20.50
2019-02-07T03:23:11.593Z,20.47
2019-02-07T03:25:37.840Z,21.27
2019-02-07T03:28:01.068Z,20.17
2019-02-07T03:30:30.267Z,21.23
2019-02-07T03:33:02.270Z,21.17
2019-02-07T03:35:28.190Z,20.73
2019-02-07T03:37:51.435Z,22.53
2019-02-07T03:40:26.677Z,21.40
2019-02-07T03:42:52.804Z,22.77
2019-02-07T03:45:33.433Z,20.83
2019-02-07T03:47:56.637Z,21.70
2019-02-07T03:50:19.853Z,21.40
2019-02-07T03:52:45.510Z,18.50
2019-02-07T03:55:08.727Z,17.70
2019-02-07T03:57:46.887Z,16.80
2019-02-07T04:00:11.672Z,16.57
2019-02-07T04:02:47.385Z,16.00
2019-02-07T04:05:17.355Z,15.53
2019-02-07T04:07:57.074Z,17.20
2019-02-07T04:10:29.361Z,17.37
2019-02-07T04:12:53.125Z,17.17
2019-02-07T04:15:42.219Z,17.27
2019-02-07T04:20:59.827Z,16.40
2019-02-07T04:23:40.014Z,15.97
2019-02-07T04:26:15.600Z,14.87
2019-02-07T04:28:47.973Z,15.27
2019-02-07T04:33:55.340Z,14.97
2019-02-07T04:36:18.591Z,14.70
2019-02-07T04:38:58.314Z,14.33
2019-02-07T04:41:27.225Z,14.90
2019-02-07T04:44:06.925Z,14.20
2019-02-07T04:46:47.024Z,13.67
2019-02-07T04:49:26.621Z,13.47
2019-02-07T04:51:57.376Z,12.87
2019-02-07T04:54:34.361Z,12.70
2019-02-07T04:56:57.692Z,13.47
2019-02-07T04:59:21.016Z,13.67
2019-02-07T05:01:46.962Z,13.53
2019-02-07T05:04:13.185Z,15.10
2019-02-07T05:06:51.744Z,15.87
2019-02-07T05:09:23.823Z,14.60
2019-02-07T05:11:49.872Z,16.77
2019-02-07T05:14:15.628Z,14.90
2019-02-07T05:16:55.288Z,13.47
2019-02-07T05:19:21.151Z,13.30
2019-02-07T05:22:01.305Z,12.60
2019-02-07T05:24:39.482Z,12.33
2019-02-07T05:27:05.679Z,11.73
2019-02-07T05:29:44.223Z,12.83
2019-02-07T05:32:07.723Z,14.03
2019-02-07T05:34:36.783Z,13.03
2019-02-07T05:37:02.707Z,12.17
2019-02-07T05:39:26.261Z,12.23
2019-02-07T05:41:55.227Z,12.90
2019-02-07T05:44:35.388Z,12.80
2019-02-07T05:47:11.554Z,12.87
2019-02-07T05:49:47.050Z,12.67
2019-02-07T05:52:13.067Z,15.97
2019-02-07T05:54:54.078Z,17.03
2019-02-07T05:57:23.648Z,13.83
2019-02-07T06:00:03.558Z,14.13
2019-02-07T06:02:45.726Z,15.30
2019-02-07T06:05:26.802Z,14.47
2019-02-07T06:08:06.837Z,13.73
2019-02-07T06:10:49.117Z,13.10
2019-02-07T06:13:20.096Z,13.00
2019-02-07T06:16:00.890Z,12.80
2019-02-07T06:18:40.879Z,13.07
2019-02-07T06:21:10.413Z,12.47
2019-02-07T06:23:49.998Z,11.73
2019-02-07T06:26:19.124Z,17.10
2019-02-07T06:28:59.048Z,12.80
2019-02-07T06:34:07.672Z,39.17
2019-02-07T06:36:35.026Z,12.87
2019-02-07T06:39:07.648Z,11.67
2019-02-07T06:41:49.069Z,12.17
2019-02-07T06:44:27.495Z,11.80
2019-02-07T06:46:56.509Z,10.47
2019-02-07T06:49:36.408Z,11.23
2019-02-07T06:51:59.612Z,11.43
2019-02-07T06:54:28.524Z,10.97
2019-02-07T06:56:54.433Z,11.27
2019-02-07T06:59:30.051Z,10.97
2019-02-07T07:04:47.648Z,10.17
2019-02-07T07:07:11.114Z,10.90
2019-02-07T07:09:34.336Z,11.27
2019-02-07T07:12:14.256Z,11.33
2019-02-07T07:14:49.337Z,10.80
2019-02-07T07:17:26.075Z,11.03
2019-02-07T07:19:57.024Z,10.80
2019-02-07T07:22:22.744Z,10.77
2019-02-07T07:24:54.685Z,11.47
2019-02-07T07:27:33.283Z,12.43
2019-02-07T07:30:05.982Z,12.30
2019-02-07T07:32:32.530Z,12.80
2019-02-07T07:35:13.831Z,16.73
2019-02-07T07:37:42.869Z,15.40
2019-02-07T07:40:30.590Z,16.47
2019-02-07T07:43:03.276Z,15.67
2019-02-07T07:45:35.707Z,13.20
2019-02-07T07:47:58.849Z,13.00
2019-02-07T07:50:30.942Z,12.57
2019-02-07T07:53:12.670Z,11.73
2019-02-07T07:55:44.744Z,10.67
2019-02-07T07:58:08.035Z,10.67
2019-02-07T08:00:43.088Z,12.60
2019-02-07T08:03:09.303Z,11.13
2019-02-07T08:05:38.562Z,10.87
2019-02-07T08:08:18.556Z,10.77
2019-02-07T08:10:48.897Z,10.83
2019-02-07T08:13:12.112Z,10.07
2019-02-07T08:15:41.360Z,10.90
2019-02-07T08:18:22.765Z,10.73
2019-02-07T08:20:52.074Z,10.90
2019-02-07T08:23:20.991Z,10.10
2019-02-07T08:26:00.709Z,10.87
2019-02-07T08:28:33.061Z,10.27
2019-02-07T08:31:11.269Z,10.27
2019-02-07T08:33:39.174Z,10.30
2019-02-07T08:36:05.240Z,10.50
2019-02-07T08:38:45.523Z,10.63
2019-02-07T08:41:17.609Z,11.10
2019-02-07T08:43:43.117Z,10.50
2019-02-07T08:46:08.737Z,10.50
2019-02-07T08:48:37.668Z,11.37
2019-02-07T08:51:03.668Z,10.80
2019-02-07T08:53:26.799Z,10.13
2019-02-07T08:56:01.767Z,9.20
2019-02-07T08:58:27.771Z,9.50
2019-02-07T09:00:51.306Z,10.50
2019-02-07T09:03:14.441Z,10.33
2019-02-07T09:05:46.157Z,10.20
2019-02-07T09:11:20.748Z,10.37
2019-02-07T09:13:53.792Z,10.47
2019-02-07T09:16:19.418Z,10.77
2019-02-07T09:18:59.368Z,10.43
2019-02-07T09:21:28.949Z,10.37
2019-02-07T09:23:52.477Z,10.63
2019-02-07T09:26:24.969Z,10.10
2019-02-07T09:29:04.941Z,10.50
2019-02-07T09:31:44.825Z,10.23
2019-02-07T09:34:14.234Z,9.40
2019-02-07T09:36:54.037Z,9.87
2019-02-07T09:39:25.818Z,9.83
2019-02-07T09:41:55.135Z,11.77
2019-02-07T09:47:05.809Z,15.50
2019-02-07T09:49:34.887Z,10.80
2019-02-07T09:52:07.178Z,12.27
2019-02-07T09:54:48.939Z,11.33
2019-02-07T09:57:20.793Z,12.10
2019-02-07T09:59:52.822Z,13.20
2019-02-07T10:02:27.725Z,11.97
2019-02-07T10:04:50.863Z,12.27
2019-02-07T10:07:29.342Z,11.97
2019-02-07T10:10:07.568Z,13.63
2019-02-07T10:12:36.736Z,13.83
2019-02-07T10:15:06.045Z,15.70
2019-02-07T10:17:38.096Z,14.53
2019-02-07T10:20:10.807Z,13.67
2019-02-07T10:22:52.396Z,14.00
2019-02-07T10:25:21.966Z,13.77
2019-02-07T10:27:45.223Z,14.43
2019-02-07T10:30:17.401Z,14.13
2019-02-07T10:32:43.733Z,14.73
2019-02-07T10:35:22.451Z,16.10
2019-02-07T10:37:45.848Z,18.03
2019-02-07T10:40:24.957Z,17.13
2019-02-07T10:42:50.752Z,17.70
2019-02-07T10:45:20.620Z,16.47
2019-02-07T10:48:00.143Z,17.50
2019-02-07T10:50:23.365Z,18.73
2019-02-07T10:52:49.514Z,17.77
2019-02-07T10:55:21.436Z,17.90
2019-02-07T10:57:46.821Z,18.47
2019-02-07T11:00:24.995Z,17.60
2019-02-07T11:02:48.548Z,17.30
2019-02-07T11:05:29.291Z,16.20
2019-02-07T11:08:08.820Z,17.70
2019-02-07T11:10:41.448Z,17.77
2019-02-07T11:13:19.585Z,16.00
2019-02-07T11:16:00.816Z,17.40
2019-02-07T11:18:55.594Z,16.43
2019-02-07T11:21:35.717Z,18.47
2019-02-07T11:24:07.594Z,18.70
2019-02-07T11:26:47.005Z,16.70
2019-02-07T11:29:26.931Z,16.87
2019-02-07T11:31:50.198Z,17.17
2019-02-07T11:34:30.023Z,17.53
2019-02-07T11:36:59.479Z,16.53
2019-02-07T11:39:31.426Z,15.60
2019-02-07T11:41:57.755Z,15.87
2019-02-07T11:44:21.037Z,16.03
2019-02-07T11:49:48.014Z,17.33
2019-02-07T11:52:11.221Z,16.47
2019-02-07T11:54:34.513Z,16.47
2019-02-07T11:57:14.541Z,17.17
2019-02-07T11:59:37.743Z,19.10
2019-02-07T12:02:17.260Z,16.63
2019-02-07T12:04:43.685Z,16.13
2019-02-07T12:07:06.804Z,16.70
2019-02-07T12:09:30.003Z,15.63
2019-02-07T12:11:56.528Z,16.53
2019-02-07T12:14:31.499Z,16.97
2019-02-07T12:17:11.820Z,18.53
2019-02-07T12:19:37.865Z,15.63
2019-02-07T12:22:17.579Z,16.10
2019-02-07T12:24:40.752Z,16.23
2019-02-07T12:27:12.938Z,15.93
2019-02-07T12:29:51.827Z,15.87
2019-02-07T12:32:15.022Z,17.17
2019-02-07T12:34:38.146Z,16.97
2019-02-07T12:37:07.259Z,16.87
2019-02-07T12:39:36.809Z,14.67
2019-02-07T12:42:31.002Z,15.33
2019-02-07T12:44:59.749Z,15.63
2019-02-07T12:47:38.379Z,15.73
2019-02-07T12:50:07.317Z,17.00
2019-02-07T12:52:39.478Z,14.73
2019-02-07T12:55:05.370Z,15.43
2019-02-07T12:57:28.568Z,13.90
2019-02-07T13:00:08.316Z,15.70
2019-02-07T13:02:31.664Z,16.93
2019-02-07T13:05:01.616Z,16.13
2019-02-07T13:07:41.262Z,17.57
2019-02-07T13:10:23.458Z,14.90
2019-02-07T13:12:46.586Z,16.10
2019-02-07T13:15:22.250Z,15.57
2019-02-07T13:17:45.663Z,17.73
2019-02-07T13:20:34.868Z,17.97
2019-02-07T13:23:06.614Z,16.57
2019-02-07T13:25:29.847Z,16.70
2019-02-07T13:28:04.754Z,17.83
2019-02-07T13:30:27.994Z,18.27
2019-02-07T13:33:09.601Z,17.73
2019-02-07T13:35:50.426Z,16.63
2019-02-07T13:38:16.563Z,18.57
2019-02-07T13:40:56.323Z,20.87
2019-02-07T13:43:28.372Z,17.30
2019-02-07T13:46:08.215Z,19.20
2019-02-07T13:48:31.432Z,16.23
2019-02-07T13:51:09.611Z,16.63
2019-02-07T13:53:49.403Z,17.97
2019-02-07T13:56:29.452Z,17.13
2019-02-07T13:59:01.199Z,17.33
2019-02-07T14:01:39.249Z,16.13
2019-02-07T14:04:11.048Z,17.30
2019-02-07T14:06:40.041Z,15.57
2019-02-07T14:17:56.038Z,16.97
2019-02-07T14:20:21.757Z,15.67
2019-02-07T14:23:03.344Z,15.30
2019-02-07T14:25:26.942Z,14.27
2019-02-07T14:28:05.116Z,15.20
2019-02-07T14:30:44.901Z,15.63
2019-02-07T14:39:05.729Z,15.30
2019-02-07T14:44:33.031Z,14.63
2019-02-07T14:46:54.246Z,14.97
2019-02-07T14:49:15.543Z,14.87
2019-02-07T14:51:36.880Z,15.60
2019-02-07T14:54:00.663Z,14.97
2019-02-07T14:56:21.611Z,15.20
2019-02-07T14:58:43.396Z,13.97
2019-02-07T15:01:04.649Z,14.00
2019-02-07T15:03:25.959Z,14.20
2019-02-07T15:05:47.252Z,15.63
2019-02-07T15:08:08.594Z,15.47
2019-02-07T15:10:29.851Z,16.10
2019-02-07T15:12:51.073Z,16.00
2019-02-07T15:15:15.055Z,15.30
2019-02-07T15:17:36.290Z,15.17
2019-02-07T15:19:57.591Z,16.67
2019-02-07T15:22:18.803Z,16.30
2019-02-07T15:24:40.016Z,19.70
2019-02-07T15:27:01.212Z,17.17
2019-02-07T15:29:22.556Z,16.03
2019-02-07T15:31:43.838Z,16.67
2019-02-07T15:34:05.071Z,18.13
2019-02-07T15:36:26.411Z,15.83
2019-02-07T15:38:47.719Z,15.57
2019-02-07T15:41:08.918Z,16.67
2019-02-07T15:43:30.402Z,15.70
2019-02-07T15:45:59.714Z,15.90
2019-02-07T15:48:20.926Z,14.17
2019-02-07T15:50:42.135Z,16.10
2019-02-07T15:53:05.267Z,14.60
2019-02-07T15:55:26.565Z,15.40
2019-02-07T15:57:47.851Z,17.63
2019-02-07T16:02:54.408Z,14.00
2019-02-07T16:05:15.824Z,13.33
2019-02-07T16:07:37.627Z,13.90
2019-02-07T16:10:00.461Z,12.03
2019-02-07T16:12:22.252Z,12.40
2019-02-07T16:14:43.472Z,13.87
2019-02-07T16:17:04.931Z,15.27
2019-02-07T16:19:26.240Z,14.67
2019-02-07T16:21:47.690Z,14.60
2019-02-07T16:24:09.006Z,15.00
2019-02-07T16:26:30.630Z,18.90
2019-02-07T16:28:51.935Z,16.63
2019-02-07T16:31:13.723Z,14.37
2019-02-07T16:33:35.531Z,13.40
2019-02-07T16:35:57.007Z,14.37
2019-02-07T16:38:18.383Z,12.43
2019-02-07T16:40:39.577Z,14.47
2019-02-07T16:43:00.802Z,12.37
2019-02-07T16:45:23.429Z,13.63
2019-02-07T16:47:50.740Z,13.90
2019-02-07T16:50:34.259Z,14.10
2019-02-07T16:52:55.827Z,13.00
2019-02-07T16:55:17.019Z,12.60
2019-02-07T16:57:38.246Z,12.77
2019-02-07T16:59:59.557Z,12.90
2019-02-07T17:02:20.810Z,14.57
2019-02-07T17:04:42.117Z,13.17
2019-02-07T17:07:04.519Z,12.80
2019-02-07T17:09:26.551Z,12.77
2019-02-07T17:11:47.751Z,12.20
2019-02-07T17:14:08.968Z,12.73
2019-02-07T17:16:30.144Z,13.13
2019-02-07T17:18:51.651Z,14.13
2019-02-07T17:21:13.454Z,15.53
2019-02-07T17:23:34.671Z,16.67
2019-02-07T17:25:56.005Z,14.20
2019-02-07T17:28:17.201Z,13.33
2019-02-07T17:30:38.506Z,12.13
2019-02-07T17:32:59.818Z,12.77
2019-02-07T17:35:21.041Z,12.77
2019-02-07T17:37:42.348Z,12.33
2019-02-07T17:40:28.267Z,11.27
2019-02-07T17:42:49.685Z,11.30
2019-02-07T17:45:14.489Z,11.77
2019-02-07T17:47:36.731Z,12.40
2019-02-07T17:49:58.433Z,10.93
2019-02-07T17:52:21.150Z,10.87
2019-02-07T17:54:42.372Z,10.23
2019-02-07T17:57:03.651Z,11.03
2019-02-07T17:59:24.877Z,10.37
2019-02-07T18:01:47.376Z,9.97
2019-02-07T18:04:08.667Z,10.17
2019-02-07T18:06:29.876Z,18.37
2019-02-07T18:08:51.273Z,11.40
2019-02-07T18:11:14.132Z,13.53
2019-02-07T18:13:35.434Z,10.60
2019-02-07T18:16:10.100Z,10.40
2019-02-07T18:18:31.461Z,10.17
2019-02-07T18:20:53.294Z,10.93
2019-02-07T18:23:14.531Z,10.23
2019-02-07T18:25:37.051Z,11.40
2019-02-07T18:27:58.843Z,11.10
2019-02-07T18:30:21.314Z,11.30
2019-02-07T18:32:42.649Z,10.80
2019-02-07T18:35:04.669Z,12.17
2019-02-07T18:37:25.881Z,11.70
2019-02-07T18:39:47.407Z,12.90
2019-02-07T18:42:08.777Z,12.57
2019-02-07T18:44:32.915Z,11.73
2019-02-07T18:46:54.153Z,12.30
2019-02-07T18:49:28.454Z,11.13
2019-02-07T18:51:49.778Z,11.27
2019-02-07T18:54:11.029Z,11.43
2019-02-07T18:56:32.232Z,12.50
2019-02-07T18:58:54.387Z,9.97
2019-02-07T19:01:15.818Z,10.70
2019-02-07T19:03:37.760Z,9.13
2019-02-07T19:05:59.501Z,9.27
2019-02-07T19:08:20.831Z,7.47
2019-02-07T19:10:42.059Z,7.40
2019-02-07T19:13:03.965Z,6.90
2019-02-07T19:15:31.592Z,7.13
2019-02-07T19:17:52.882Z,7.40
2019-02-07T19:20:16.007Z,6.73
2019-02-07T19:22:37.302Z,6.00
2019-02-07T19:24:58.506Z,5.83
2019-02-07T19:27:19.740Z,5.30
2019-02-07T19:29:41.963Z,5.00
2019-02-07T19:32:03.311Z,4.80
2019-02-07T19:34:24.637Z,4.53
2019-02-07T19:36:45.859Z,4.30
2019-02-07T19:39:08.153Z,4.37
2019-02-07T19:41:29.483Z,4.03
2019-02-07T19:43:50.663Z,3.93
2019-02-07T19:46:12.184Z,7.10
2019-02-07T19:48:33.891Z,3.93
2019-02-07T19:50:55.560Z,3.23
2019-02-07T19:53:16.840Z,3.93
2019-02-07T19:55:38.399Z,3.77
2019-02-07T19:57:59.913Z,3.90
2019-02-07T20:00:24.519Z,25.37
2019-02-07T20:02:45.835Z,4.77
2019-02-07T20:05:08.847Z,2.93
2019-02-07T20:07:30.280Z,3.00
2019-02-07T20:09:51.646Z,3.37
2019-02-07T20:12:14.453Z,3.10
2019-02-07T20:14:35.776Z,3.10
2019-02-07T20:16:57.079Z,3.60
2019-02-07T20:19:18.288Z,3.07
2019-02-07T20:21:39.812Z,3.20
2019-02-07T20:24:01.030Z,3.53
2019-02-07T20:26:22.353Z,3.40
2019-02-07T20:28:43.881Z,3.00
2019-02-07T20:31:05.183Z,3.60
2019-02-07T20:33:26.551Z,3.10
2019-02-07T20:35:47.903Z,4.07
2019-02-07T20:38:09.727Z,4.10
2019-02-07T20:40:31.045Z,3.53
2019-02-07T20:42:52.810Z,3.57
2019-02-07T20:45:14.804Z,4.07
2019-02-07T20:47:36.322Z,4.20
2019-02-07T20:49:57.556Z,5.17
2019-02-07T20:52:19.368Z,4.40
2019-02-07T20:54:40.747Z,4.60
2019-02-07T20:57:01.993Z,5.00
2019-02-07T20:59:23.288Z,5.60
2019-02-07T21:01:44.921Z,6.43
2019-02-07T21:04:06.311Z,5.60
2019-02-07T21:06:27.629Z,5.57
2019-02-07T21:08:48.925Z,4.90
2019-02-07T21:11:10.435Z,5.07
2019-02-07T21:13:31.675Z,4.97
2019-02-07T21:15:53.196Z,5.40
2019-02-07T21:18:14.525Z,4.87
2019-02-07T21:20:36.798Z,4.47
2019-02-07T21:22:59.581Z,4.00
2019-02-07T21:25:24.003Z,3.60
2019-02-07T21:27:45.595Z,3.80
2019-02-07T21:30:22.652Z,3.50
2019-02-07T21:32:43.889Z,3.27
2019-02-07T21:35:09.121Z,3.23
2019-02-07T21:37:32.956Z,2.97
2019-02-07T21:39:54.170Z,2.73
2019-02-07T21:42:15.525Z,3.00
2019-02-07T21:44:36.914Z,3.03
2019-02-07T21:46:58.285Z,2.80
2019-02-07T21:49:19.609Z,2.97
2019-02-07T21:51:42.079Z,2.80
2019-02-07T21:54:03.286Z,3.20
2019-02-07T21:56:24.508Z,3.23
2019-02-07T21:58:45.829Z,2.63
2019-02-07T22:01:07.129Z,2.90
2019-02-07T22:03:29.549Z,3.07
2019-02-07T22:05:50.774Z,2.97
2019-02-07T22:08:12.146Z,3.30
2019-02-07T22:10:33.586Z,3.10
2019-02-07T22:12:54.797Z,3.00
2019-02-07T22:15:19.799Z,3.43
2019-02-07T22:17:41.536Z,3.23
2019-02-07T22:20:06.635Z,3.40
2019-02-07T22:22:28.064Z,3.10
2019-02-07T22:24:49.346Z,3.27
2019-02-07T22:27:10.555Z,3.17
2019-02-07T22:29:31.756Z,2.97
2019-02-07T22:31:52.999Z,2.70
2019-02-07T22:34:14.363Z,3.20
2019-02-07T22:36:35.644Z,3.30
2019-02-07T22:38:57.237Z,18.73
2019-02-07T22:41:18.477Z,3.43
2019-02-07T22:43:39.757Z,3.07
2019-02-07T22:46:00.942Z,3.00
2019-02-07T22:48:24.433Z,3.20
2019-02-07T22:50:45.629Z,2.97
2019-02-07T22:53:06.838Z,3.03
2019-02-07T22:55:28.283Z,3.20
2019-02-07T22:57:49.605Z,2.83
2019-02-07T23:00:41.033Z,2.77
2019-02-07T23:03:06.580Z,2.40
2019-02-07T23:05:27.841Z,2.70
2019-02-07T23:07:49.084Z,3.00
2019-02-07T23:10:10.555Z,17.60
2019-02-07T23:12:31.769Z,9.63
2019-02-07T23:14:53.131Z,7.97
2019-02-07T23:17:14.438Z,3.30
2019-02-07T23:19:35.855Z,2.87
2019-02-07T23:21:57.077Z,3.13
2019-02-07T23:24:18.427Z,2.97
2019-02-07T23:26:40.135Z,2.67
2019-02-07T23:29:01.659Z,2.60
2019-02-07T23:31:22.966Z,2.73
2019-02-07T23:33:44.286Z,2.37
2019-02-07T23:36:05.600Z,2.50
2019-02-07T23:38:26.866Z,2.63
2019-02-07T23:40:48.228Z,2.17
2019-02-07T23:43:09.463Z,2.30
2019-02-07T23:45:30.838Z,1.90
2019-02-07T23:47:52.180Z,2.27
2019-02-07T23:50:13.638Z,2.20
2019-02-07T23:52:34.853Z,2.23
2019-02-07T23:54:56.206Z,2.10
2019-02-07T23:57:17.519Z,2.30
2019-02-07T23:59:38.950Z,2.10
